sensor_id;sensor_type;location;lat;lon;timestamp;pressure;altitude;pressure_sealevel;temperature;humidity
19553;BME280;9420;50.876;7.012;2022-12-07T00:01:46;101312.00;;;11.71;100.00
19553;BME280;9420;50.876;7.012;2022-12-07T00:04:16;101310.19;;;11.37;100.00
19553;BME280;9420;50.876;7.012;2022-12-07T00:06:47;101310.00;;;11.06;100.00
19553;BME280;9420;50.876;7.012;2022-12-07T00:09:17;101308.09;;;10.74;100.00
19553;BME280;9420;50.876;7.012;2022-12-07T00:11:49;101311.66;;;11.50;100.00
19553;BME280;9420;50.876;7.012;2022-12-07T00:14:18;101303.06;;;11.03;100.00
19553;BME280;9420;50.876;7.012;2022-12-07T00:16:48;101301.03;;;11.14;100.00
19553;BME280;9420;50.876;7.012;2022-12-07T00:19:15;101301.16;;;11.47;100.00
19553;BME280;9420;50.876;7.012;2022-12-07T00:21:44;101310.59;;;11.18;100.00
19553;BME280;9420;50.876;7.012;2022-12-07T00:24:11;101303.31;;;11.30;100.00
19553;BME280;9420;50.876;7.012;2022-12-07T00:26:41;101305.13;;;11.28;100.00
19553;BME280;9420;50.876;7.012;2022-12-07T00:29:14;101298.34;;;11.17;100.00
19553;BME280;9420;50.876;7.012;2022-12-07T00:31:42;101295.25;;;11.36;100.00
19553;BME280;9420;50.876;7.012;2022-12-07T00:34:15;101296.88;;;11.04;100.00
19553;BME280;9420;50.876;7.012;2022-12-07T00:36:43;101292.28;;;11.12;100.00
19553;BME280;9420;50.876;7.012;2022-12-07T00:39:11;101290.03;;;10.97;100.00
19553;BME280;9420;50.876;7.012;2022-12-07T00:41:38;101288.56;;;11.21;100.00
19553;BME280;9420;50.876;7.012;2022-12-07T00:44:05;101284.59;;;11.03;100.00
19553;BME280;9420;50.876;7.012;2022-12-07T00:46:32;101286.84;;;11.20;100.00
19553;BME280;9420;50.876;7.012;2022-12-07T00:48:59;101285.47;;;11.41;100.00
19553;BME280;9420;50.876;7.012;2022-12-07T00:51:27;101282.00;;;11.39;100.00
19553;BME280;9420;50.876;7.012;2022-12-07T00:53:55;101278.69;;;11.31;100.00
19553;BME280;9420;50.876;7.012;2022-12-07T00:56:25;101277.38;;;11.11;100.00
19553;BME280;9420;50.876;7.012;2022-12-07T00:58:55;101282.94;;;11.36;100.00
19553;BME280;9420;50.876;7.012;2022-12-07T01:01:24;101282.06;;;11.37;100.00
19553;BME280;9420;50.876;7.012;2022-12-07T01:03:51;101285.19;;;11.53;100.00
19553;BME280;9420;50.876;7.012;2022-12-07T01:06:21;101274.91;;;11.79;100.00
19553;BME280;9420;50.876;7.012;2022-12-07T01:08:48;101273.91;;;11.48;100.00
19553;BME280;9420;50.876;7.012;2022-12-07T01:11:19;101274.13;;;11.74;100.00
19553;BME280;9420;50.876;7.012;2022-12-07T01:13:50;101267.69;;;11.85;100.00
19553;BME280;9420;50.876;7.012;2022-12-07T01:16:18;101280.25;;;11.38;100.00
19553;BME280;9420;50.876;7.012;2022-12-07T01:18:47;101282.50;;;11.17;100.00
19553;BME280;9420;50.876;7.012;2022-12-07T01:21:17;101282.16;;;11.33;100.00
19553;BME280;9420;50.876;7.012;2022-12-07T01:23:46;101281.97;;;11.02;100.00
19553;BME280;9420;50.876;7.012;2022-12-07T01:26:18;101277.38;;;11.48;100.00
19553;BME280;9420;50.876;7.012;2022-12-07T01:28:46;101283.78;;;11.38;100.00
19553;BME280;9420;50.876;7.012;2022-12-07T01:31:16;101283.38;;;11.55;100.00
19553;BME280;9420;50.876;7.012;2022-12-07T01:33:45;101290.03;;;11.34;100.00
19553;BME280;9420;50.876;7.012;2022-12-07T01:36:16;101285.69;;;11.32;100.00
19553;BME280;9420;50.876;7.012;2022-12-07T01:38:48;101289.28;;;10.91;100.00
19553;BME280;9420;50.876;7.012;2022-12-07T01:41:19;101277.63;;;11.39;100.00
19553;BME280;9420;50.876;7.012;2022-12-07T01:44:22;101279.88;;;11.17;100.00
19553;BME280;9420;50.876;7.012;2022-12-07T01:46:52;101284.19;;;11.57;100.00
19553;BME280;9420;50.876;7.012;2022-12-07T01:49:27;101290.06;;;10.94;100.00
19553;BME280;9420;50.876;7.012;2022-12-07T01:52:06;101281.44;;;11.26;100.00
19553;BME280;9420;50.876;7.012;2022-12-07T01:54:35;101282.66;;;11.11;100.00
19553;BME280;9420;50.876;7.012;2022-12-07T01:57:07;101275.78;;;11.78;100.00
19553;BME280;9420;50.876;7.012;2022-12-07T01:59:35;101278.69;;;11.31;100.00
19553;BME280;9420;50.876;7.012;2022-12-07T02:02:08;101266.81;;;11.48;100.00
19553;BME280;9420;50.876;7.012;2022-12-07T02:04:37;101272.91;;;11.52;100.00
19553;BME280;9420;50.876;7.012;2022-12-07T02:07:05;101267.75;;;11.46;100.00
19553;BME280;9420;50.876;7.012;2022-12-07T02:09:33;101265.59;;;11.28;100.00
19553;BME280;9420;50.876;7.012;2022-12-07T02:12:01;101263.72;;;11.31;100.00
19553;BME280;9420;50.876;7.012;2022-12-07T02:14:30;101264.25;;;11.10;100.00
19553;BME280;9420;50.876;7.012;2022-12-07T02:17:10;101258.91;;;11.83;100.00
19553;BME280;9420;50.876;7.012;2022-12-07T02:20:07;101266.13;;;11.05;100.00
19553;BME280;9420;50.876;7.012;2022-12-07T02:23:04;101262.44;;;11.12;100.00
19553;BME280;9420;50.876;7.012;2022-12-07T02:26:13;101258.16;;;11.06;100.00
19553;BME280;9420;50.876;7.012;2022-12-07T02:29:10;101259.19;;;11.38;100.00
19553;BME280;9420;50.876;7.012;2022-12-07T02:31:46;101261.78;;;11.02;100.00
19553;BME280;9420;50.876;7.012;2022-12-07T02:34:26;101260.06;;;11.75;100.00
19553;BME280;9420;50.876;7.012;2022-12-07T02:37:02;101258.84;;;11.16;100.00
19553;BME280;9420;50.876;7.012;2022-12-07T02:39:39;101256.16;;;11.17;100.00
19553;BME280;9420;50.876;7.012;2022-12-07T02:42:14;101259.44;;;10.90;100.00
19553;BME280;9420;50.876;7.012;2022-12-07T02:44:46;101262.94;;;10.89;100.00
19553;BME280;9420;50.876;7.012;2022-12-07T02:47:17;101248.63;;;11.38;100.00
19553;BME280;9420;50.876;7.012;2022-12-07T02:49:46;101249.09;;;10.81;100.00
19553;BME280;9420;50.876;7.012;2022-12-07T02:52:14;101249.63;;;11.69;100.00
19553;BME280;9420;50.876;7.012;2022-12-07T02:54:41;101252.91;;;11.06;100.00
19553;BME280;9420;50.876;7.012;2022-12-07T02:57:36;101249.97;;;11.18;100.00
19553;BME280;9420;50.876;7.012;2022-12-07T03:00:14;101238.75;;;11.10;100.00
19553;BME280;9420;50.876;7.012;2022-12-07T03:02:52;101242.53;;;11.36;100.00
19553;BME280;9420;50.876;7.012;2022-12-07T03:06:00;101234.47;;;11.42;100.00
19553;BME280;9420;50.876;7.012;2022-12-07T03:08:43;101242.97;;;11.53;100.00
19553;BME280;9420;50.876;7.012;2022-12-07T03:11:16;101249.91;;;10.83;100.00
19553;BME280;9420;50.876;7.012;2022-12-07T03:13:51;101247.28;;;11.22;100.00
19553;BME280;9420;50.876;7.012;2022-12-07T03:16:27;101248.31;;;11.51;100.00
19553;BME280;9420;50.876;7.012;2022-12-07T03:19:01;101258.41;;;10.97;100.00
19553;BME280;9420;50.876;7.012;2022-12-07T03:21:34;101252.31;;;10.54;100.00
19553;BME280;9420;50.876;7.012;2022-12-07T03:24:10;101261.44;;;11.17;100.00
19553;BME280;9420;50.876;7.012;2022-12-07T03:26:45;101243.91;;;12.18;100.00
19553;BME280;9420;50.876;7.012;2022-12-07T03:29:20;101244.88;;;12.15;100.00
19553;BME280;9420;50.876;7.012;2022-12-07T03:31:55;101249.25;;;12.16;100.00
19553;BME280;9420;50.876;7.012;2022-12-07T03:34:31;101254.94;;;10.95;100.00
19553;BME280;9420;50.876;7.012;2022-12-07T03:37:04;101246.44;;;11.55;100.00
19553;BME280;9420;50.876;7.012;2022-12-07T03:39:39;101254.84;;;10.98;100.00
19553;BME280;9420;50.876;7.012;2022-12-07T03:42:09;101245.72;;;11.85;100.00
19553;BME280;9420;50.876;7.012;2022-12-07T03:44:39;101252.34;;;11.29;100.00
19553;BME280;9420;50.876;7.012;2022-12-07T03:47:16;101237.75;;;12.17;100.00
19553;BME280;9420;50.876;7.012;2022-12-07T03:49:52;101244.78;;;11.87;100.00
19553;BME280;9420;50.876;7.012;2022-12-07T03:52:28;101243.63;;;11.96;100.00
19553;BME280;9420;50.876;7.012;2022-12-07T03:55:05;101243.75;;;12.54;100.00
19553;BME280;9420;50.876;7.012;2022-12-07T03:57:35;101247.31;;;11.90;100.00
19553;BME280;9420;50.876;7.012;2022-12-07T04:00:06;101244.50;;;11.28;100.00
19553;BME280;9420;50.876;7.012;2022-12-07T04:02:35;101241.19;;;11.55;100.00
19553;BME280;9420;50.876;7.012;2022-12-07T04:05:04;101238.22;;;12.02;100.00
19553;BME280;9420;50.876;7.012;2022-12-07T04:07:31;101237.69;;;11.89;100.00
19553;BME280;9420;50.876;7.012;2022-12-07T04:09:58;101245.31;;;11.30;100.00
19553;BME280;9420;50.876;7.012;2022-12-07T04:12:25;101242.44;;;11.03;100.00
19553;BME280;9420;50.876;7.012;2022-12-07T04:14:52;101247.38;;;10.80;100.00
19553;BME280;9420;50.876;7.012;2022-12-07T04:17:19;101249.66;;;10.95;100.00
19553;BME280;9420;50.876;7.012;2022-12-07T04:19:48;101264.88;;;10.83;100.00
19553;BME280;9420;50.876;7.012;2022-12-07T04:22:15;101260.31;;;10.89;100.00
19553;BME280;9420;50.876;7.012;2022-12-07T04:24:42;101250.75;;;10.85;100.00
19553;BME280;9420;50.876;7.012;2022-12-07T04:27:09;101252.34;;;11.31;100.00
19553;BME280;9420;50.876;7.012;2022-12-07T04:29:36;101243.41;;;11.36;100.00
19553;BME280;9420;50.876;7.012;2022-12-07T04:32:03;101237.38;;;11.31;100.00
19553;BME280;9420;50.876;7.012;2022-12-07T04:34:30;101243.97;;;11.13;100.00
19553;BME280;9420;50.876;7.012;2022-12-07T04:36:58;101241.13;;;11.58;100.00
19553;BME280;9420;50.876;7.012;2022-12-07T04:39:28;101243.34;;;11.38;100.00
19553;BME280;9420;50.876;7.012;2022-12-07T04:41:56;101239.81;;;11.03;100.00
19553;BME280;9420;50.876;7.012;2022-12-07T04:44:25;101244.03;;;10.72;100.00
19553;BME280;9420;50.876;7.012;2022-12-07T04:46:54;101239.88;;;11.00;100.00
19553;BME280;9420;50.876;7.012;2022-12-07T04:49:21;101241.00;;;10.90;100.00
19553;BME280;9420;50.876;7.012;2022-12-07T04:51:50;101234.06;;;10.86;100.00
19553;BME280;9420;50.876;7.012;2022-12-07T04:54:18;101230.03;;;10.70;100.00
19553;BME280;9420;50.876;7.012;2022-12-07T04:56:46;101238.16;;;10.99;100.00
19553;BME280;9420;50.876;7.012;2022-12-07T04:59:15;101228.59;;;10.95;100.00
19553;BME280;9420;50.876;7.012;2022-12-07T05:01:43;101234.78;;;11.30;100.00
19553;BME280;9420;50.876;7.012;2022-12-07T05:04:10;101233.63;;;11.04;100.00
19553;BME280;9420;50.876;7.012;2022-12-07T05:06:37;101241.69;;;11.34;100.00
19553;BME280;9420;50.876;7.012;2022-12-07T05:09:05;101246.41;;;10.84;100.00
19553;BME280;9420;50.876;7.012;2022-12-07T05:11:33;101235.91;;;11.55;100.00
19553;BME280;9420;50.876;7.012;2022-12-07T05:14:11;101236.25;;;11.04;100.00
19553;BME280;9420;50.876;7.012;2022-12-07T05:16:40;101242.25;;;11.83;100.00
19553;BME280;9420;50.876;7.012;2022-12-07T05:19:09;101242.53;;;11.71;100.00
19553;BME280;9420;50.876;7.012;2022-12-07T05:21:37;101246.63;;;11.12;100.00
19553;BME280;9420;50.876;7.012;2022-12-07T05:24:06;101247.38;;;10.79;100.00
19553;BME280;9420;50.876;7.012;2022-12-07T05:26:35;101250.53;;;11.33;100.00
19553;BME280;9420;50.876;7.012;2022-12-07T05:29:02;101249.47;;;11.03;100.00
19553;BME280;9420;50.876;7.012;2022-12-07T05:31:30;101246.53;;;11.52;100.00
19553;BME280;9420;50.876;7.012;2022-12-07T05:33:57;101242.94;;;11.19;100.00
19553;BME280;9420;50.876;7.012;2022-12-07T05:36:24;101247.13;;;10.91;100.00
19553;BME280;9420;50.876;7.012;2022-12-07T05:38:54;101249.97;;;11.18;100.00
19553;BME280;9420;50.876;7.012;2022-12-07T05:41:21;101243.44;;;11.35;100.00
19553;BME280;9420;50.876;7.012;2022-12-07T05:44:07;101242.34;;;11.06;100.00
19553;BME280;9420;50.876;7.012;2022-12-07T05:46:34;101236.78;;;11.18;100.00
19553;BME280;9420;50.876;7.012;2022-12-07T05:49:01;101238.97;;;11.01;100.00
19553;BME280;9420;50.876;7.012;2022-12-07T05:51:29;101240.25;;;11.22;100.00
19553;BME280;9420;50.876;7.012;2022-12-07T05:53:56;101246.72;;;10.69;100.00
19553;BME280;9420;50.876;7.012;2022-12-07T05:56:23;101247.13;;;10.51;100.00
19553;BME280;9420;50.876;7.012;2022-12-07T05:58:50;101253.00;;;10.62;100.00
19553;BME280;9420;50.876;7.012;2022-12-07T06:01:35;101251.94;;;10.72;100.00
19553;BME280;9420;50.876;7.012;2022-12-07T06:04:03;101253.75;;;10.70;100.00
19553;BME280;9420;50.876;7.012;2022-12-07T06:06:30;101244.50;;;10.50;100.00
19553;BME280;9420;50.876;7.012;2022-12-07T06:08:57;101229.66;;;10.85;100.00
19553;BME280;9420;50.876;7.012;2022-12-07T06:11:24;101223.72;;;10.77;100.00
19553;BME280;9420;50.876;7.012;2022-12-07T06:14:09;101216.00;;;11.06;100.00
19553;BME280;9420;50.876;7.012;2022-12-07T06:16:37;101229.44;;;10.96;100.00
19553;BME280;9420;50.876;7.012;2022-12-07T06:19:04;101235.81;;;10.86;100.00
19553;BME280;9420;50.876;7.012;2022-12-07T06:21:31;101242.34;;;10.70;100.00
19553;BME280;9420;50.876;7.012;2022-12-07T06:23:58;101241.91;;;10.88;100.00
19553;BME280;9420;50.876;7.012;2022-12-07T06:26:25;101242.50;;;11.00;100.00
19553;BME280;9420;50.876;7.012;2022-12-07T06:28:52;101242.44;;;11.03;100.00
19553;BME280;9420;50.876;7.012;2022-12-07T06:31:19;101245.88;;;10.67;100.00
19553;BME280;9420;50.876;7.012;2022-12-07T06:33:48;101250.44;;;10.16;100.00
19553;BME280;9420;50.876;7.012;2022-12-07T06:36:15;101249.72;;;10.53;100.00
19553;BME280;9420;50.876;7.012;2022-12-07T06:38:42;101252.19;;;10.60;100.00
19553;BME280;9420;50.876;7.012;2022-12-07T06:41:09;101242.09;;;10.39;100.00
19553;BME280;9420;50.876;7.012;2022-12-07T06:43:36;101249.91;;;10.83;100.00
19553;BME280;9420;50.876;7.012;2022-12-07T06:46:04;101252.69;;;11.15;100.00
19553;BME280;9420;50.876;7.012;2022-12-07T06:48:31;101259.06;;;10.67;100.00
19553;BME280;9420;50.876;7.012;2022-12-07T06:50:59;101255.16;;;10.45;100.00
19553;BME280;9420;50.876;7.012;2022-12-07T06:53:26;101250.25;;;10.68;100.00
19553;BME280;9420;50.876;7.012;2022-12-07T06:55:53;101255.22;;;10.82;100.00
19553;BME280;9420;50.876;7.012;2022-12-07T06:58:20;101251.38;;;10.96;100.00
19553;BME280;9420;50.876;7.012;2022-12-07T07:00:50;101249.66;;;10.95;100.00
19553;BME280;9420;50.876;7.012;2022-12-07T07:03:17;101248.38;;;10.73;100.00
19553;BME280;9420;50.876;7.012;2022-12-07T07:05:44;101256.94;;;10.84;100.00
19553;BME280;9420;50.876;7.012;2022-12-07T07:08:13;101258.78;;;10.79;100.00
19553;BME280;9420;50.876;7.012;2022-12-07T07:10:41;101261.66;;;11.45;100.00
19553;BME280;9420;50.876;7.012;2022-12-07T07:13:08;101264.97;;;11.16;100.00
19553;BME280;9420;50.876;7.012;2022-12-07T07:15:38;101258.91;;;11.85;100.00
19553;BME280;9420;50.876;7.012;2022-12-07T07:18:05;101264.69;;;11.64;100.00
19553;BME280;9420;50.876;7.012;2022-12-07T07:20:32;101266.25;;;11.72;100.00
19553;BME280;9420;50.876;7.012;2022-12-07T07:22:59;101272.31;;;11.76;100.00
19553;BME280;9420;50.876;7.012;2022-12-07T07:25:27;101270.84;;;11.64;100.00
19553;BME280;9420;50.876;7.012;2022-12-07T07:27:54;101272.81;;;11.55;100.00
19553;BME280;9420;50.876;7.012;2022-12-07T07:30:21;101266.25;;;11.36;100.00
19553;BME280;9420;50.876;7.012;2022-12-07T07:32:48;101277.69;;;10.99;100.00
19553;BME280;9420;50.876;7.012;2022-12-07T07:35:16;101273.19;;;11.03;100.00
19553;BME280;9420;50.876;7.012;2022-12-07T07:37:43;101271.63;;;11.33;100.00
19553;BME280;9420;50.876;7.012;2022-12-07T07:40:11;101269.50;;;11.11;100.00
19553;BME280;9420;50.876;7.012;2022-12-07T07:42:39;101268.91;;;11.71;100.00
19553;BME280;9420;50.876;7.012;2022-12-07T07:45:08;101268.56;;;11.12;100.00
19553;BME280;9420;50.876;7.012;2022-12-07T07:47:35;101270.66;;;10.98;100.00
19553;BME280;9420;50.876;7.012;2022-12-07T07:50:03;101263.47;;;11.42;100.00
19553;BME280;9420;50.876;7.012;2022-12-07T07:52:31;101262.75;;;12.36;100.00
19553;BME280;9420;50.876;7.012;2022-12-07T07:54:58;101266.50;;;11.97;100.00
19553;BME280;9420;50.876;7.012;2022-12-07T07:57:25;101274.41;;;11.62;100.00
19553;BME280;9420;50.876;7.012;2022-12-07T07:59:54;101267.09;;;11.74;100.00
19553;BME280;9420;50.876;7.012;2022-12-07T08:02:21;101276.22;;;11.95;100.00
19553;BME280;9420;50.876;7.012;2022-12-07T08:04:48;101272.97;;;11.85;100.00
19553;BME280;9420;50.876;7.012;2022-12-07T08:07:15;101275.28;;;11.96;100.00
19553;BME280;9420;50.876;7.012;2022-12-07T08:09:42;101273.75;;;11.52;100.00
19553;BME280;9420;50.876;7.012;2022-12-07T08:12:09;101272.72;;;12.27;100.00
19553;BME280;9420;50.876;7.012;2022-12-07T08:14:36;101274.75;;;12.48;100.00
19553;BME280;9420;50.876;7.012;2022-12-07T08:17:05;101268.38;;;12.24;100.00
19553;BME280;9420;50.876;7.012;2022-12-07T08:19:33;101276.22;;;11.60;100.00
19553;BME280;9420;50.876;7.012;2022-12-07T08:22:00;101268.00;;;11.37;100.00
19553;BME280;9420;50.876;7.012;2022-12-07T08:24:27;101265.91;;;12.18;100.00
19553;BME280;9420;50.876;7.012;2022-12-07T08:26:54;101265.72;;;12.56;100.00
19553;BME280;9420;50.876;7.012;2022-12-07T08:29:21;101274.00;;;12.12;100.00
19553;BME280;9420;50.876;7.012;2022-12-07T08:31:48;101267.72;;;12.47;100.00
19553;BME280;9420;50.876;7.012;2022-12-07T08:34:16;101279.84;;;11.91;100.00
19553;BME280;9420;50.876;7.012;2022-12-07T08:36:43;101278.09;;;11.55;100.00
19553;BME280;9420;50.876;7.012;2022-12-07T08:39:10;101283.41;;;11.88;100.00
19553;BME280;9420;50.876;7.012;2022-12-07T08:41:37;101282.66;;;11.85;100.00
19553;BME280;9420;50.876;7.012;2022-12-07T08:44:05;101285.03;;;11.59;100.00
19553;BME280;9420;50.876;7.012;2022-12-07T08:46:37;101280.50;;;11.64;100.00
19553;BME280;9420;50.876;7.012;2022-12-07T08:49:11;101272.84;;;12.22;100.00
19553;BME280;9420;50.876;7.012;2022-12-07T08:51:41;101272.41;;;12.37;100.00
19553;BME280;9420;50.876;7.012;2022-12-07T08:54:11;101281.28;;;11.69;100.00
19553;BME280;9420;50.876;7.012;2022-12-07T08:56:39;101278.63;;;12.04;100.00
19553;BME280;9420;50.876;7.012;2022-12-07T08:59:07;101273.34;;;12.04;100.00
19553;BME280;9420;50.876;7.012;2022-12-07T09:01:35;101274.91;;;11.79;100.00
19553;BME280;9420;50.876;7.012;2022-12-07T09:04:02;101274.47;;;12.26;100.00
19553;BME280;9420;50.876;7.012;2022-12-07T09:06:29;101280.06;;;11.10;100.00
19553;BME280;9420;50.876;7.012;2022-12-07T09:09:00;101282.50;;;11.17;100.00
19553;BME280;9420;50.876;7.012;2022-12-07T09:11:28;101278.00;;;11.59;100.00
19553;BME280;9420;50.876;7.012;2022-12-07T09:13:55;101281.63;;;11.17;100.00
19553;BME280;9420;50.876;7.012;2022-12-07T09:16:22;101279.09;;;11.12;100.00
19553;BME280;9420;50.876;7.012;2022-12-07T09:18:49;101282.75;;;11.07;100.00
19553;BME280;9420;50.876;7.012;2022-12-07T09:21:16;101289.59;;;11.15;100.00
19553;BME280;9420;50.876;7.012;2022-12-07T09:23:43;101287.66;;;11.60;100.00
19553;BME280;9420;50.876;7.012;2022-12-07T09:26:12;101278.78;;;11.98;100.00
19553;BME280;9420;50.876;7.012;2022-12-07T09:28:40;101280.88;;;12.50;100.00
19553;BME280;9420;50.876;7.012;2022-12-07T09:31:06;101293.03;;;12.23;100.00
19553;BME280;9420;50.876;7.012;2022-12-07T09:33:33;101292.78;;;11.65;100.00
19553;BME280;9420;50.876;7.012;2022-12-07T09:36:00;101292.66;;;11.71;100.00
19553;BME280;9420;50.876;7.012;2022-12-07T09:38:28;101288.44;;;11.64;100.00
19553;BME280;9420;50.876;7.012;2022-12-07T09:40:55;101286.47;;;11.37;100.00
19553;BME280;9420;50.876;7.012;2022-12-07T09:43:25;101289.75;;;12.15;100.00
19553;BME280;9420;50.876;7.012;2022-12-07T09:45:55;101293.25;;;11.82;100.00
19553;BME280;9420;50.876;7.012;2022-12-07T09:48:30;101281.41;;;12.30;100.00
19553;BME280;9420;50.876;7.012;2022-12-07T09:50:59;101284.97;;;11.97;100.00
19553;BME280;9420;50.876;7.012;2022-12-07T09:53:30;101284.63;;;11.77;100.00
19553;BME280;9420;50.876;7.012;2022-12-07T09:56:00;101280.28;;;12.07;100.00
19553;BME280;9420;50.876;7.012;2022-12-07T09:58:31;101274.66;;;12.20;100.00
19553;BME280;9420;50.876;7.012;2022-12-07T10:01:09;101277.44;;;11.82;100.00
19553;BME280;9420;50.876;7.012;2022-12-07T10:03:40;101284.19;;;11.92;100.00
19553;BME280;9420;50.876;7.012;2022-12-07T10:06:10;101274.47;;;12.86;100.00
19553;BME280;9420;50.876;7.012;2022-12-07T10:08:37;101272.91;;;12.81;100.00
19553;BME280;9420;50.876;7.012;2022-12-07T10:11:07;101264.44;;;12.08;100.00
19553;BME280;9420;50.876;7.012;2022-12-07T10:13:39;101267.31;;;11.99;100.00
19553;BME280;9420;50.876;7.012;2022-12-07T10:16:30;101258.31;;;11.74;100.00
19553;BME280;9420;50.876;7.012;2022-12-07T10:19:19;101255.31;;;11.87;100.00
19553;BME280;9420;50.876;7.012;2022-12-07T10:22:03;101255.88;;;12.00;100.00
19553;BME280;9420;50.876;7.012;2022-12-07T10:24:30;101254.06;;;12.02;100.00
19553;BME280;9420;50.876;7.012;2022-12-07T10:26:58;101260.69;;;12.47;100.00
19553;BME280;9420;50.876;7.012;2022-12-07T10:29:30;101254.06;;;12.01;100.00
19553;BME280;9420;50.876;7.012;2022-12-07T10:32:01;101251.13;;;12.43;100.00
19553;BME280;9420;50.876;7.012;2022-12-07T10:34:31;101247.09;;;12.89;100.00
19553;BME280;9420;50.876;7.012;2022-12-07T10:37:16;101243.16;;;13.02;100.00
19553;BME280;9420;50.876;7.012;2022-12-07T10:39:45;101238.78;;;13.30;100.00
19553;BME280;9420;50.876;7.012;2022-12-07T10:42:18;101229.84;;;13.85;100.00
19553;BME280;9420;50.876;7.012;2022-12-07T10:44:49;101241.22;;;13.36;100.00
19553;BME280;9420;50.876;7.012;2022-12-07T10:47:33;101237.88;;;13.02;100.00
19553;BME280;9420;50.876;7.012;2022-12-07T10:50:39;101235.34;;;12.69;100.00
19553;BME280;9420;50.876;7.012;2022-12-07T10:53:40;101237.69;;;12.20;100.00
19553;BME280;9420;50.876;7.012;2022-12-07T10:56:59;101227.66;;;12.02;100.00
19553;BME280;9420;50.876;7.012;2022-12-07T10:59:51;101226.09;;;12.56;100.00
19553;BME280;9420;50.876;7.012;2022-12-07T11:02:43;101220.56;;;12.35;100.00
19553;BME280;9420;50.876;7.012;2022-12-07T11:05:24;101219.69;;;12.34;100.00
19553;BME280;9420;50.876;7.012;2022-12-07T11:08:03;101220.78;;;12.86;100.00
19553;BME280;9420;50.876;7.012;2022-12-07T11:10:42;101221.28;;;12.97;100.00
19553;BME280;9420;50.876;7.012;2022-12-07T11:13:37;101200.75;;;13.34;100.00
19553;BME280;9420;50.876;7.012;2022-12-07T11:16:24;101204.97;;;13.12;100.00
19553;BME280;9420;50.876;7.012;2022-12-07T11:19:24;101197.56;;;12.38;100.00
19553;BME280;9420;50.876;7.012;2022-12-07T11:21:58;101191.97;;;12.49;100.00
19553;BME280;9420;50.876;7.012;2022-12-07T11:24:36;101191.53;;;12.92;100.00
19553;BME280;9420;50.876;7.012;2022-12-07T11:27:20;101192.66;;;12.55;100.00
19553;BME280;9420;50.876;7.012;2022-12-07T11:30:10;101178.66;;;12.81;100.00
19553;BME280;9420;50.876;7.012;2022-12-07T11:33:02;101182.94;;;12.56;100.00
19553;BME280;9420;50.876;7.012;2022-12-07T11:35:45;101178.22;;;12.65;100.00
19553;BME280;9420;50.876;7.012;2022-12-07T11:38:17;101176.53;;;12.64;100.00
19553;BME280;9420;50.876;7.012;2022-12-07T11:40:48;101173.84;;;12.94;100.00
19553;BME280;9420;50.876;7.012;2022-12-07T11:43:24;101176.47;;;12.94;100.00
19553;BME280;9420;50.876;7.012;2022-12-07T11:46:00;101165.47;;;13.07;100.00
19553;BME280;9420;50.876;7.012;2022-12-07T11:48:35;101175.09;;;12.54;100.00
19553;BME280;9420;50.876;7.012;2022-12-07T11:51:10;101159.34;;;13.07;100.00
19553;BME280;9420;50.876;7.012;2022-12-07T11:53:43;101164.00;;;13.25;100.00
19553;BME280;9420;50.876;7.012;2022-12-07T11:56:16;101162.19;;;13.27;100.00
19553;BME280;9420;50.876;7.012;2022-12-07T11:58:51;101158.34;;;13.09;100.00
19553;BME280;9420;50.876;7.012;2022-12-07T12:01:45;101161.19;;;13.05;100.00
19553;BME280;9420;50.876;7.012;2022-12-07T12:04:31;101156.03;;;12.99;100.00
19553;BME280;9420;50.876;7.012;2022-12-07T12:07:01;101161.25;;;13.54;100.00
19553;BME280;9420;50.876;7.012;2022-12-07T12:09:35;101151.72;;;12.96;100.00
19553;BME280;9420;50.876;7.012;2022-12-07T12:12:52;101155.28;;;13.23;100.00
19553;BME280;9420;50.876;7.012;2022-12-07T12:15:38;101150.91;;;12.66;100.00
19553;BME280;9420;50.876;7.012;2022-12-07T12:18:33;101154.00;;;12.81;100.00
19553;BME280;9420;50.876;7.012;2022-12-07T12:21:09;101154.31;;;12.98;100.00
19553;BME280;9420;50.876;7.012;2022-12-07T12:23:43;101155.56;;;12.86;100.00
19553;BME280;9420;50.876;7.012;2022-12-07T12:26:18;101155.84;;;13.06;100.00
19553;BME280;9420;50.876;7.012;2022-12-07T12:28:55;101148.31;;;12.93;100.00
19553;BME280;9420;50.876;7.012;2022-12-07T12:31:38;101152.50;;;12.72;100.00
19553;BME280;9420;50.876;7.012;2022-12-07T12:34:37;101138.88;;;12.86;100.00
19553;BME280;9420;50.876;7.012;2022-12-07T12:37:43;101147.56;;;12.32;100.00
19553;BME280;9420;50.876;7.012;2022-12-07T12:40:40;101138.56;;;13.96;100.00
19553;BME280;9420;50.876;7.012;2022-12-07T12:43:43;101131.78;;;14.36;100.00
19553;BME280;9420;50.876;7.012;2022-12-07T12:49:38;101131.41;;;13.98;100.00
19553;BME280;9420;50.876;7.012;2022-12-07T12:52:52;101135.38;;;13.11;100.00
19553;BME280;9420;50.876;7.012;2022-12-07T12:58:42;101134.25;;;12.92;100.00
19553;BME280;9420;50.876;7.012;2022-12-07T13:01:45;101138.00;;;12.57;100.00
19553;BME280;9420;50.876;7.012;2022-12-07T13:04:38;101135.34;;;12.57;100.00
19553;BME280;9420;50.876;7.012;2022-12-07T13:07:54;101139.84;;;12.26;100.00
19553;BME280;9420;50.876;7.012;2022-12-07T13:10:43;101139.28;;;12.15;100.00
19553;BME280;9420;50.876;7.012;2022-12-07T13:13:33;101136.31;;;12.26;100.00
19553;BME280;9420;50.876;7.012;2022-12-07T13:16:40;101120.13;;;12.65;100.00
19553;BME280;9420;50.876;7.012;2022-12-07T13:19:56;101123.00;;;12.30;100.00
19553;BME280;9420;50.876;7.012;2022-12-07T13:22:48;101125.72;;;11.98;100.00
19553;BME280;9420;50.876;7.012;2022-12-07T13:25:35;101131.34;;;12.17;100.00
19553;BME280;9420;50.876;7.012;2022-12-07T13:28:15;101122.63;;;12.13;100.00
19553;BME280;9420;50.876;7.012;2022-12-07T13:30:53;101128.47;;;12.24;100.00